sensor_id;sensor_type;location;lat;lon;timestamp;pressure;altitude;pressure_sealevel;temperature;humidity
43707;BME280;61348;53.392;-6.248;2023-01-26T00:01:22;102867.22;;;5.09;92.92
43707;BME280;61348;53.392;-6.248;2023-01-26T00:03:49;102866.44;;;5.08;93.08
43707;BME280;61348;53.392;-6.248;2023-01-26T00:06:18;102877.41;;;5.08;92.93
43707;BME280;61348;53.392;-6.248;2023-01-26T00:08:46;102868.84;;;5.05;92.87
43707;BME280;61348;53.392;-6.248;2023-01-26T00:11:16;102880.91;;;5.04;93.12
43707;BME280;61348;53.392;-6.248;2023-01-26T00:13:43;102896.28;;;5.05;92.99
43707;BME280;61348;53.392;-6.248;2023-01-26T00:16:14;102897.94;;;5.06;93.31
43707;BME280;61348;53.392;-6.248;2023-01-26T00:18:41;102901.00;;;5.09;93.19
43707;BME280;61348;53.392;-6.248;2023-01-26T00:21:14;102882.06;;;5.08;92.97
43707;BME280;61348;53.392;-6.248;2023-01-26T00:23:41;102874.06;;;5.06;93.17
43707;BME280;61348;53.392;-6.248;2023-01-26T00:26:09;102873.50;;;5.04;93.20
43707;BME280;61348;53.392;-6.248;2023-01-26T00:28:36;102862.19;;;5.01;92.91
43707;BME280;61348;53.392;-6.248;2023-01-26T00:31:04;102862.47;;;4.99;92.86
43707;BME280;61348;53.392;-6.248;2023-01-26T00:33:31;102858.88;;;4.99;93.01
43707;BME280;61348;53.392;-6.248;2023-01-26T00:35:58;102860.56;;;5.00;93.28
43707;BME280;61348;53.392;-6.248;2023-01-26T00:38:25;102855.28;;;4.98;93.17
43707;BME280;61348;53.392;-6.248;2023-01-26T00:40:52;102845.66;;;4.96;93.25
43707;BME280;61348;53.392;-6.248;2023-01-26T00:43:19;102848.16;;;4.97;93.08
43707;BME280;61348;53.392;-6.248;2023-01-26T00:45:47;102863.53;;;4.98;93.06
43707;BME280;61348;53.392;-6.248;2023-01-26T00:48:14;102867.13;;;4.99;93.42
43707;BME280;61348;53.392;-6.248;2023-01-26T00:50:40;102865.47;;;4.98;93.10
43707;BME280;61348;53.392;-6.248;2023-01-26T00:53:07;102861.91;;;4.97;93.16
43707;BME280;61348;53.392;-6.248;2023-01-26T00:55:34;102859.16;;;4.97;93.17
43707;BME280;61348;53.392;-6.248;2023-01-26T00:58:05;102871.47;;;4.95;93.11
43707;BME280;61348;53.392;-6.248;2023-01-26T01:00:34;102867.88;;;4.94;93.44
43707;BME280;61348;53.392;-6.248;2023-01-26T01:03:02;102855.00;;;4.95;93.64
43707;BME280;61348;53.392;-6.248;2023-01-26T01:05:30;102840.44;;;4.94;93.44
43707;BME280;61348;53.392;-6.248;2023-01-26T01:07:57;102828.91;;;4.92;93.26
43707;BME280;61348;53.392;-6.248;2023-01-26T01:10:25;102820.06;;;4.90;93.23
43707;BME280;61348;53.392;-6.248;2023-01-26T01:12:54;102830.25;;;4.89;93.58
43707;BME280;61348;53.392;-6.248;2023-01-26T01:15:23;102827.72;;;4.88;93.36
43707;BME280;61348;53.392;-6.248;2023-01-26T01:17:49;102822.00;;;4.89;93.53
43707;BME280;61348;53.392;-6.248;2023-01-26T01:20:16;102830.81;;;4.91;93.58
43707;BME280;61348;53.392;-6.248;2023-01-26T01:22:43;102837.69;;;4.94;93.30
43707;BME280;61348;53.392;-6.248;2023-01-26T01:25:09;102835.00;;;4.99;93.66
43707;BME280;61348;53.392;-6.248;2023-01-26T01:27:36;102829.25;;;5.01;93.38
43707;BME280;61348;53.392;-6.248;2023-01-26T01:30:03;102829.00;;;5.02;93.15
43707;BME280;61348;53.392;-6.248;2023-01-26T01:32:34;102832.31;;;5.04;93.20
43707;BME280;61348;53.392;-6.248;2023-01-26T01:35:01;102852.69;;;5.08;93.61
43707;BME280;61348;53.392;-6.248;2023-01-26T01:37:28;102857.09;;;5.09;93.19
43707;BME280;61348;53.392;-6.248;2023-01-26T01:39:55;102849.41;;;5.11;93.07
43707;BME280;61348;53.392;-6.248;2023-01-26T01:42:22;102848.59;;;5.11;93.11
43707;BME280;61348;53.392;-6.248;2023-01-26T01:47:46;102852.75;;;5.13;93.03
43707;BME280;61348;53.392;-6.248;2023-01-26T01:50:16;102841.50;;;5.15;93.13
43707;BME280;61348;53.392;-6.248;2023-01-26T01:52:43;102834.09;;;5.15;92.90
43707;BME280;61348;53.392;-6.248;2023-01-26T01:55:12;102834.94;;;5.16;92.79
43707;BME280;61348;53.392;-6.248;2023-01-26T01:57:43;102825.28;;;5.13;92.89
43707;BME280;61348;53.392;-6.248;2023-01-26T02:00:14;102819.81;;;5.13;92.90
43707;BME280;61348;53.392;-6.248;2023-01-26T02:02:43;102822.78;;;5.12;92.78
43707;BME280;61348;53.392;-6.248;2023-01-26T02:05:24;102826.38;;;5.12;92.75
43707;BME280;61348;53.392;-6.248;2023-01-26T02:07:53;102837.09;;;5.14;92.59
43707;BME280;61348;53.392;-6.248;2023-01-26T02:10:20;102843.16;;;5.16;92.65
43707;BME280;61348;53.392;-6.248;2023-01-26T02:12:54;102849.72;;;5.15;92.73
43707;BME280;61348;53.392;-6.248;2023-01-26T02:15:22;102842.06;;;5.17;92.37
43707;BME280;61348;53.392;-6.248;2023-01-26T02:17:52;102853.88;;;5.17;92.85
43707;BME280;61348;53.392;-6.248;2023-01-26T02:28:07;102849.22;;;5.18;92.38
43707;BME280;61348;53.392;-6.248;2023-01-26T02:30:34;102833.59;;;5.18;92.37
43707;BME280;61348;53.392;-6.248;2023-01-26T02:33:01;102839.91;;;5.19;92.44
43707;BME280;61348;53.392;-6.248;2023-01-26T02:35:27;102858.03;;;5.20;92.65
43707;BME280;61348;53.392;-6.248;2023-01-26T02:37:54;102857.19;;;5.19;92.51
43707;BME280;61348;53.392;-6.248;2023-01-26T02:40:45;102866.03;;;5.21;92.54
43707;BME280;61348;53.392;-6.248;2023-01-26T02:43:14;102864.91;;;5.22;92.58
43707;BME280;61348;53.392;-6.248;2023-01-26T02:45:41;102869.34;;;5.23;92.75
43707;BME280;61348;53.392;-6.248;2023-01-26T02:48:08;102863.84;;;5.23;92.71
43707;BME280;61348;53.392;-6.248;2023-01-26T02:50:35;102860.00;;;5.24;92.76
43707;BME280;61348;53.392;-6.248;2023-01-26T02:53:02;102861.66;;;5.25;92.75
43707;BME280;61348;53.392;-6.248;2023-01-26T02:55:29;102864.97;;;5.27;92.54
43707;BME280;61348;53.392;-6.248;2023-01-26T02:58:01;102865.81;;;5.28;92.73
43707;BME280;61348;53.392;-6.248;2023-01-26T03:03:13;102853.97;;;5.27;92.56
43707;BME280;61348;53.392;-6.248;2023-01-26T03:05:40;102847.69;;;5.27;92.63
43707;BME280;61348;53.392;-6.248;2023-01-26T03:08:07;102857.84;;;5.26;92.79
43707;BME280;61348;53.392;-6.248;2023-01-26T03:10:34;102859.47;;;5.27;92.58
43707;BME280;61348;53.392;-6.248;2023-01-26T03:13:01;102851.84;;;5.29;92.79
43707;BME280;61348;53.392;-6.248;2023-01-26T03:15:29;102865.81;;;5.28;92.58
43707;BME280;61348;53.392;-6.248;2023-01-26T03:18:13;102879.81;;;5.26;92.82
43707;BME280;61348;53.392;-6.248;2023-01-26T03:20:59;102867.16;;;5.25;92.85
43707;BME280;61348;53.392;-6.248;2023-01-26T03:23:46;102872.66;;;5.25;92.61
43707;BME280;61348;53.392;-6.248;2023-01-26T03:26:31;102875.38;;;5.25;92.80
43707;BME280;61348;53.392;-6.248;2023-01-26T03:29:16;102877.06;;;5.26;92.58
43707;BME280;61348;53.392;-6.248;2023-01-26T03:31:43;102867.97;;;5.26;92.73
43707;BME280;61348;53.392;-6.248;2023-01-26T03:34:10;102866.06;;;5.26;92.80
43707;BME280;61348;53.392;-6.248;2023-01-26T03:36:36;102864.97;;;5.27;92.71
43707;BME280;61348;53.392;-6.248;2023-01-26T03:39:04;102860.31;;;5.28;92.61
43707;BME280;61348;53.392;-6.248;2023-01-26T03:41:31;102859.47;;;5.27;92.59
43707;BME280;61348;53.392;-6.248;2023-01-26T03:44:16;102867.72;;;5.27;92.61
43707;BME280;61348;53.392;-6.248;2023-01-26T03:47:01;102870.47;;;5.27;92.94
43707;BME280;61348;53.392;-6.248;2023-01-26T03:49:46;102870.22;;;5.29;92.68
43707;BME280;61348;53.392;-6.248;2023-01-26T03:52:31;102865.56;;;5.29;92.46
43707;BME280;61348;53.392;-6.248;2023-01-26T03:55:17;102862.81;;;5.29;92.71
43707;BME280;61348;53.392;-6.248;2023-01-26T03:58:02;102863.91;;;5.28;92.75
43707;BME280;61348;53.392;-6.248;2023-01-26T04:00:29;102869.13;;;5.30;92.73
43707;BME280;61348;53.392;-6.248;2023-01-26T04:02:56;102869.94;;;5.30;92.63
43707;BME280;61348;53.392;-6.248;2023-01-26T04:05:41;102862.53;;;5.31;92.54
43707;BME280;61348;53.392;-6.248;2023-01-26T04:08:42;102858.72;;;5.32;92.76
43707;BME280;61348;53.392;-6.248;2023-01-26T04:11:10;102864.78;;;5.34;92.57
43707;BME280;61348;53.392;-6.248;2023-01-26T04:13:36;102874.94;;;5.33;92.60
43707;BME280;61348;53.392;-6.248;2023-01-26T04:16:22;102874.66;;;5.35;92.39
43707;BME280;61348;53.392;-6.248;2023-01-26T04:19:07;102871.09;;;5.34;92.46
43707;BME280;61348;53.392;-6.248;2023-01-26T04:21:53;102875.25;;;5.37;92.12
43707;BME280;61348;53.392;-6.248;2023-01-26T04:24:20;102877.16;;;5.36;92.18
43707;BME280;61348;53.392;-6.248;2023-01-26T04:26:48;102881.59;;;5.37;92.39
43707;BME280;61348;53.392;-6.248;2023-01-26T04:29:15;102881.59;;;5.37;92.01
43707;BME280;61348;53.392;-6.248;2023-01-26T04:31:42;102882.38;;;5.38;92.21
43707;BME280;61348;53.392;-6.248;2023-01-26T04:34:12;102870.59;;;5.37;91.91
43707;BME280;61348;53.392;-6.248;2023-01-26T04:36:40;102866.41;;;5.35;92.07
43707;BME280;61348;53.392;-6.248;2023-01-26T04:39:08;102864.47;;;5.30;91.54
43707;BME280;61348;53.392;-6.248;2023-01-26T04:41:35;102868.22;;;5.24;91.62
43707;BME280;61348;53.392;-6.248;2023-01-26T04:44:01;102876.69;;;5.18;91.55
43707;BME280;61348;53.392;-6.248;2023-01-26T04:46:28;102882.34;;;5.11;91.34
43707;BME280;61348;53.392;-6.248;2023-01-26T04:48:55;102885.03;;;5.06;91.38
43707;BME280;61348;53.392;-6.248;2023-01-26T04:51:22;102883.91;;;5.02;90.93
43707;BME280;61348;53.392;-6.248;2023-01-26T04:53:49;102893.16;;;4.96;91.45
43707;BME280;61348;53.392;-6.248;2023-01-26T04:56:21;102895.84;;;4.91;91.35
43707;BME280;61348;53.392;-6.248;2023-01-26T04:58:48;102901.84;;;4.88;91.21
43707;BME280;61348;53.392;-6.248;2023-01-26T05:01:15;102902.63;;;4.83;91.43
43707;BME280;61348;53.392;-6.248;2023-01-26T05:03:41;102896.78;;;4.80;91.34
43707;BME280;61348;53.392;-6.248;2023-01-26T05:06:08;102892.91;;;4.76;91.20
43707;BME280;61348;53.392;-6.248;2023-01-26T05:08:36;102895.88;;;4.74;91.21
43707;BME280;61348;53.392;-6.248;2023-01-26T05:11:03;102894.47;;;4.72;91.10
43707;BME280;61348;53.392;-6.248;2023-01-26T05:13:30;102890.59;;;4.68;91.23
43707;BME280;61348;53.392;-6.248;2023-01-26T05:15:56;102894.69;;;4.65;91.32
43707;BME280;61348;53.392;-6.248;2023-01-26T05:18:23;102894.34;;;4.62;91.00
43707;BME280;61348;53.392;-6.248;2023-01-26T05:20:49;102902.00;;;4.60;91.03
43707;BME280;61348;53.392;-6.248;2023-01-26T05:23:16;102899.78;;;4.57;91.14
43707;BME280;61348;53.392;-6.248;2023-01-26T05:25:43;102903.00;;;4.54;91.10
43707;BME280;61348;53.392;-6.248;2023-01-26T05:28:09;102899.69;;;4.52;90.92
43707;BME280;61348;53.392;-6.248;2023-01-26T05:30:36;102895.78;;;4.48;90.94
43707;BME280;61348;53.392;-6.248;2023-01-26T05:33:05;102884.00;;;4.47;90.99
43707;BME280;61348;53.392;-6.248;2023-01-26T05:35:32;102883.16;;;4.47;91.27
43707;BME280;61348;53.392;-6.248;2023-01-26T05:37:59;102878.75;;;4.46;91.03
43707;BME280;61348;53.392;-6.248;2023-01-26T05:40:27;102884.50;;;4.44;91.08
43707;BME280;61348;53.392;-6.248;2023-01-26T05:42:54;102880.34;;;4.42;90.92
43707;BME280;61348;53.392;-6.248;2023-01-26T05:45:20;102886.91;;;4.41;91.08
43707;BME280;61348;53.392;-6.248;2023-01-26T05:47:47;102897.03;;;4.40;90.90
43707;BME280;61348;53.392;-6.248;2023-01-26T05:50:14;102887.97;;;4.40;90.86
43707;BME280;61348;53.392;-6.248;2023-01-26T05:52:42;102891.56;;;4.40;91.01
43707;BME280;61348;53.392;-6.248;2023-01-26T05:55:09;102899.78;;;4.40;91.14
43707;BME280;61348;53.392;-6.248;2023-01-26T05:57:36;102892.41;;;4.41;91.09
43707;BME280;61348;53.392;-6.248;2023-01-26T06:00:04;102902.78;;;4.39;90.82
43707;BME280;61348;53.392;-6.248;2023-01-26T06:02:31;102901.13;;;4.38;90.91
43707;BME280;61348;53.392;-6.248;2023-01-26T06:04:57;102906.03;;;4.36;90.75
43707;BME280;61348;53.392;-6.248;2023-01-26T06:07:24;102912.59;;;4.35;90.82
43707;BME280;61348;53.392;-6.248;2023-01-26T06:09:52;102908.22;;;4.34;90.76
43707;BME280;61348;53.392;-6.248;2023-01-26T06:12:20;102904.63;;;4.33;90.87
43707;BME280;61348;53.392;-6.248;2023-01-26T06:14:47;102914.53;;;4.34;91.15
43707;BME280;61348;53.392;-6.248;2023-01-26T06:17:15;102913.69;;;4.34;90.87
43707;BME280;61348;53.392;-6.248;2023-01-26T06:19:43;102907.94;;;4.35;91.04
43707;BME280;61348;53.392;-6.248;2023-01-26T06:22:11;102917.00;;;4.36;90.95
43707;BME280;61348;53.392;-6.248;2023-01-26T06:24:37;102922.75;;;4.34;90.69
43707;BME280;61348;53.392;-6.248;2023-01-26T06:27:06;102922.16;;;4.32;90.75
43707;BME280;61348;53.392;-6.248;2023-01-26T06:29:34;102918.84;;;4.30;91.05
43707;BME280;61348;53.392;-6.248;2023-01-26T06:32:00;102913.34;;;4.30;91.00
43707;BME280;61348;53.392;-6.248;2023-01-26T06:34:27;102921.31;;;4.31;90.92
43707;BME280;61348;53.392;-6.248;2023-01-26T06:36:54;102915.81;;;4.31;90.86
43707;BME280;61348;53.392;-6.248;2023-01-26T06:39:21;102924.06;;;4.31;90.66
43707;BME280;61348;53.392;-6.248;2023-01-26T06:41:48;102916.66;;;4.32;91.09
43707;BME280;61348;53.392;-6.248;2023-01-26T06:44:15;102926.31;;;4.35;90.92
43707;BME280;61348;53.392;-6.248;2023-01-26T06:46:41;102924.16;;;4.37;90.91
43707;BME280;61348;53.392;-6.248;2023-01-26T06:49:08;102932.38;;;4.37;91.14
43707;BME280;61348;53.392;-6.248;2023-01-26T06:51:54;102931.84;;;4.40;90.70
43707;BME280;61348;53.392;-6.248;2023-01-26T06:54:22;102922.81;;;4.39;91.03
43707;BME280;61348;53.392;-6.248;2023-01-26T06:56:49;102915.41;;;4.40;90.87
43707;BME280;61348;53.392;-6.248;2023-01-26T06:59:16;102925.31;;;4.41;90.96
43707;BME280;61348;53.392;-6.248;2023-01-26T07:01:44;102924.47;;;4.40;90.83
43707;BME280;61348;53.392;-6.248;2023-01-26T07:04:12;102937.59;;;4.38;91.06
43707;BME280;61348;53.392;-6.248;2023-01-26T07:06:39;102941.19;;;4.39;90.69
43707;BME280;61348;53.392;-6.248;2023-01-26T07:09:06;102933.81;;;4.39;90.74
43707;BME280;61348;53.392;-6.248;2023-01-26T07:11:33;102934.03;;;4.38;90.70
43707;BME280;61348;53.392;-6.248;2023-01-26T07:14:00;102948.84;;;4.37;90.64
43707;BME280;61348;53.392;-6.248;2023-01-26T07:16:27;102948.84;;;4.37;90.76
43707;BME280;61348;53.392;-6.248;2023-01-26T07:18:53;102952.38;;;4.37;90.65
43707;BME280;61348;53.392;-6.248;2023-01-26T07:21:21;102954.06;;;4.38;90.68
43707;BME280;61348;53.392;-6.248;2023-01-26T07:23:49;102951.06;;;4.40;90.70
43707;BME280;61348;53.392;-6.248;2023-01-26T07:26:17;102956.31;;;4.41;90.81
43707;BME280;61348;53.392;-6.248;2023-01-26T07:28:44;102958.78;;;4.43;90.95
43707;BME280;61348;53.392;-6.248;2023-01-26T07:31:11;102955.81;;;4.44;90.74
43707;BME280;61348;53.392;-6.248;2023-01-26T07:33:38;102952.22;;;4.44;90.68
43707;BME280;61348;53.392;-6.248;2023-01-26T07:36:05;102965.13;;;4.43;90.81
43707;BME280;61348;53.392;-6.248;2023-01-26T07:38:33;102962.38;;;4.43;90.75
43707;BME280;61348;53.392;-6.248;2023-01-26T07:41:04;102954.13;;;4.43;90.70
43707;BME280;61348;53.392;-6.248;2023-01-26T07:43:33;102958.78;;;4.43;90.67
43707;BME280;61348;53.392;-6.248;2023-01-26T07:46:00;102954.41;;;4.42;90.71
43707;BME280;61348;53.392;-6.248;2023-01-26T07:48:27;102953.31;;;4.43;90.73
43707;BME280;61348;53.392;-6.248;2023-01-26T07:50:59;102955.47;;;4.41;90.49
43707;BME280;61348;53.392;-6.248;2023-01-26T07:53:26;102953.00;;;4.39;90.50
43707;BME280;61348;53.392;-6.248;2023-01-26T07:56:04;102954.91;;;4.39;90.80
43707;BME280;61348;53.392;-6.248;2023-01-26T07:58:32;102962.56;;;4.37;91.08
43707;BME280;61348;53.392;-6.248;2023-01-26T08:01:19;102959.22;;;4.35;90.77
43707;BME280;61348;53.392;-6.248;2023-01-26T08:03:49;102960.31;;;4.34;90.88
43707;BME280;61348;53.392;-6.248;2023-01-26T08:06:16;102952.56;;;4.30;90.88
43707;BME280;61348;53.392;-6.248;2023-01-26T08:08:48;102964.03;;;4.27;90.96
43707;BME280;61348;53.392;-6.248;2023-01-26T08:11:19;102953.34;;;4.26;90.74
43707;BME280;61348;53.392;-6.248;2023-01-26T08:13:50;102956.31;;;4.24;90.97
43707;BME280;61348;53.392;-6.248;2023-01-26T08:16:17;102949.69;;;4.20;90.79
43707;BME280;61348;53.392;-6.248;2023-01-26T08:18:45;102952.91;;;4.17;90.61
43707;BME280;61348;53.392;-6.248;2023-01-26T08:21:13;102947.66;;;4.16;90.72
43707;BME280;61348;53.392;-6.248;2023-01-26T08:23:41;102948.41;;;4.11;90.69
43707;BME280;61348;53.392;-6.248;2023-01-26T08:26:10;102956.06;;;4.09;90.80
43707;BME280;61348;53.392;-6.248;2023-01-26T08:28:38;102954.38;;;4.08;90.86
43707;BME280;61348;53.392;-6.248;2023-01-26T08:31:17;102959.56;;;4.05;90.63
43707;BME280;61348;53.392;-6.248;2023-01-26T08:33:47;102961.44;;;4.04;90.70
43707;BME280;61348;53.392;-6.248;2023-01-26T08:36:17;102962.53;;;4.03;90.59
43707;BME280;61348;53.392;-6.248;2023-01-26T08:38:47;102951.22;;;4.00;91.09
43707;BME280;61348;53.392;-6.248;2023-01-26T08:41:14;102954.22;;;3.98;91.07
43707;BME280;61348;53.392;-6.248;2023-01-26T08:43:41;102960.19;;;3.95;90.83
43707;BME280;61348;53.392;-6.248;2023-01-26T08:46:08;102967.81;;;3.93;90.88
43707;BME280;61348;53.392;-6.248;2023-01-26T08:48:35;102974.16;;;3.94;91.20
43707;BME280;61348;53.392;-6.248;2023-01-26T08:51:04;102976.63;;;3.95;90.94
43707;BME280;61348;53.392;-6.248;2023-01-26T08:53:32;102981.34;;;4.00;91.13
43707;BME280;61348;53.392;-6.248;2023-01-26T08:56:04;102977.63;;;4.06;91.20
43707;BME280;61348;53.392;-6.248;2023-01-26T08:58:31;102976.88;;;4.10;90.97
43707;BME280;61348;53.392;-6.248;2023-01-26T09:01:06;102966.84;;;4.16;90.80
43707;BME280;61348;53.392;-6.248;2023-01-26T09:03:33;102960.03;;;4.18;91.11
43707;BME280;61348;53.392;-6.248;2023-01-26T09:06:02;102984.47;;;4.20;91.06
43707;BME280;61348;53.392;-6.248;2023-01-26T09:08:30;102990.78;;;4.20;91.19
43707;BME280;61348;53.392;-6.248;2023-01-26T09:10:57;102986.97;;;4.21;91.09
43707;BME280;61348;53.392;-6.248;2023-01-26T09:13:24;102988.84;;;4.21;91.12
43707;BME280;61348;53.392;-6.248;2023-01-26T09:15:51;102991.59;;;4.21;91.05
43707;BME280;61348;53.392;-6.248;2023-01-26T09:18:18;102995.19;;;4.21;91.13
43707;BME280;61348;53.392;-6.248;2023-01-26T09:20:45;102986.72;;;4.23;91.09
43707;BME280;61348;53.392;-6.248;2023-01-26T09:23:12;102996.59;;;4.24;90.73
43707;BME280;61348;53.392;-6.248;2023-01-26T09:25:41;102998.09;;;4.31;90.83
43707;BME280;61348;53.392;-6.248;2023-01-26T09:28:08;102992.72;;;4.37;91.03
43707;BME280;61348;53.392;-6.248;2023-01-26T09:30:34;102989.44;;;4.40;91.07
43707;BME280;61348;53.392;-6.248;2023-01-26T09:33:03;102994.44;;;4.43;90.92
43707;BME280;61348;53.392;-6.248;2023-01-26T09:35:30;102998.38;;;4.47;90.97
43707;BME280;61348;53.392;-6.248;2023-01-26T09:37:57;103002.25;;;4.51;90.98
43707;BME280;61348;53.392;-6.248;2023-01-26T09:40:37;102995.78;;;4.57;90.95
43707;BME280;61348;53.392;-6.248;2023-01-26T09:51:43;103026.09;;;5.00;90.72
43707;BME280;61348;53.392;-6.248;2023-01-26T09:57:09;103022.47;;;5.16;90.27
43707;BME280;61348;53.392;-6.248;2023-01-26T09:59:41;103025.28;;;5.21;90.33
43707;BME280;61348;53.392;-6.248;2023-01-26T10:04:39;103021.56;;;5.32;90.60
43707;BME280;61348;53.392;-6.248;2023-01-26T10:07:10;103025.50;;;5.36;90.42
43707;BME280;61348;53.392;-6.248;2023-01-26T10:09:39;103027.72;;;5.39;90.49
43707;BME280;61348;53.392;-6.248;2023-01-26T10:15:00;103033.78;;;5.41;90.43
43707;BME280;61348;53.392;-6.248;2023-01-26T10:17:34;103031.59;;;5.43;90.41
43707;BME280;61348;53.392;-6.248;2023-01-26T10:20:16;103033.22;;;5.39;90.20
43707;BME280;61348;53.392;-6.248;2023-01-26T10:22:48;103036.72;;;5.35;90.33
43707;BME280;61348;53.392;-6.248;2023-01-26T10:25:22;103029.75;;;5.27;90.24
43707;BME280;61348;53.392;-6.248;2023-01-26T10:27:53;103037.09;;;5.22;90.29
43707;BME280;61348;53.392;-6.248;2023-01-26T10:30:20;103035.38;;;5.16;90.51
43707;BME280;61348;53.392;-6.248;2023-01-26T10:32:50;103045.19;;;5.12;90.55
43707;BME280;61348;53.392;-6.248;2023-01-26T10:35:22;103039.97;;;5.10;90.89
43707;BME280;61348;53.392;-6.248;2023-01-26T10:37:50;103034.47;;;5.10;91.15
43707;BME280;61348;53.392;-6.248;2023-01-26T10:40:19;103028.97;;;5.10;91.14
43707;BME280;61348;53.392;-6.248;2023-01-26T10:42:57;103035.81;;;5.08;90.81
43707;BME280;61348;53.392;-6.248;2023-01-26T10:45:29;103040.47;;;5.07;90.89
43707;BME280;61348;53.392;-6.248;2023-01-26T10:50:46;103043.53;;;5.11;90.80
43707;BME280;61348;53.392;-6.248;2023-01-26T10:53:16;103046.34;;;5.16;91.19
43707;BME280;61348;53.392;-6.248;2023-01-26T10:58:53;103045.72;;;5.30;90.94
43707;BME280;61348;53.392;-6.248;2023-01-26T11:01:20;103048.53;;;5.35;90.83
43707;BME280;61348;53.392;-6.248;2023-01-26T11:04:03;103049.69;;;5.39;90.54
43707;BME280;61348;53.392;-6.248;2023-01-26T11:06:31;103048.88;;;5.39;90.85
43707;BME280;61348;53.392;-6.248;2023-01-26T11:11:40;103066.69;;;5.36;91.04
43707;BME280;61348;53.392;-6.248;2023-01-26T11:14:14;103062.66;;;5.44;91.03
43707;BME280;61348;53.392;-6.248;2023-01-26T11:16:46;103059.81;;;5.56;91.01
43707;BME280;61348;53.392;-6.248;2023-01-26T11:19:36;103060.63;;;5.78;90.60
43707;BME280;61348;53.392;-6.248;2023-01-26T11:22:11;103060.31;;;5.96;90.58
43707;BME280;61348;53.392;-6.248;2023-01-26T11:24:44;103067.06;;;6.10;90.53
43707;BME280;61348;53.392;-6.248;2023-01-26T11:30:35;103073.59;;;6.31;90.47
43707;BME280;61348;53.392;-6.248;2023-01-26T11:36:16;103068.97;;;6.36;90.49
43707;BME280;61348;53.392;-6.248;2023-01-26T11:50:12;103061.06;;;6.40;90.64
43707;BME280;61348;53.392;-6.248;2023-01-26T11:58:52;103038.28;;;6.49;90.95
43707;BME280;61348;53.392;-6.248;2023-01-26T12:01:25;103042.19;;;6.53;90.73
43707;BME280;61348;53.392;-6.248;2023-01-26T12:03:55;103040.56;;;6.57;90.80
43707;BME280;61348;53.392;-6.248;2023-01-26T12:06:36;103032.94;;;6.64;90.88
43707;BME280;61348;53.392;-6.248;2023-01-26T12:12:10;103025.00;;;6.73;90.63
43707;BME280;61348;53.392;-6.248;2023-01-26T12:17:59;103021.75;;;6.81;90.48
43707;BME280;61348;53.392;-6.248;2023-01-26T12:20:37;103026.47;;;6.86;90.44
43707;BME280;61348;53.392;-6.248;2023-01-26T12:25:37;103017.69;;;6.94;90.48
43707;BME280;61348;53.392;-6.248;2023-01-26T12:28:24;103018.00;;;6.97;90.41
43707;BME280;61348;53.392;-6.248;2023-01-26T12:31:06;103018.00;;;6.97;90.42
43707;BME280;61348;53.392;-6.248;2023-01-26T12:33:37;103022.44;;;6.98;90.11
43707;BME280;61348;53.392;-6.248;2023-01-26T12:39:10;103019.16;;;7.01;90.15
43707;BME280;61348;53.392;-6.248;2023-01-26T12:46:35;103010.88;;;7.01;90.03
43707;BME280;61348;53.392;-6.248;2023-01-26T12:49:21;103009.22;;;7.00;89.93
43707;BME280;61348;53.392;-6.248;2023-01-26T12:51:55;103002.63;;;7.01;89.93
43707;BME280;61348;53.392;-6.248;2023-01-26T12:54:41;102997.38;;;7.05;90.00
43707;BME280;61348;53.392;-6.248;2023-01-26T12:57:20;102992.72;;;7.05;89.97
43707;BME280;61348;53.392;-6.248;2023-01-26T12:59:48;102987.22;;;7.05;89.75
43707;BME280;61348;53.392;-6.248;2023-01-26T13:04:43;102981.72;;;7.10;89.68
43707;BME280;61348;53.392;-6.248;2023-01-26T13:07:46;102977.34;;;7.14;89.54
43707;BME280;61348;53.392;-6.248;2023-01-26T13:12:59;102965.81;;;7.22;89.69
43707;BME280;61348;53.392;-6.248;2023-01-26T13:15:29;102968.28;;;7.24;89.27
43707;BME280;61348;53.392;-6.248;2023-01-26T13:18:01;102969.13;;;7.24;89.36
43707;BME280;61348;53.392;-6.248;2023-01-26T13:20:46;102957.59;;;7.27;89.27
43707;BME280;61348;53.392;-6.248;2023-01-26T13:26:23;102944.63;;;7.28;89.22
43707;BME280;61348;53.392;-6.248;2023-01-26T13:28:51;102952.91;;;7.33;89.25
43707;BME280;61348;53.392;-6.248;2023-01-26T13:31:32;102946.84;;;7.36;89.25
43707;BME280;61348;53.392;-6.248;2023-01-26T13:34:02;102943.56;;;7.39;89.19
43707;BME280;61348;53.392;-6.248;2023-01-26T13:36:34;102961.22;;;7.43;89.17
43707;BME280;61348;53.392;-6.248;2023-01-26T13:39:11;102951.84;;;7.44;88.95
43707;BME280;61348;53.392;-6.248;2023-01-26T13:41:44;102942.50;;;7.50;88.95
43707;BME280;61348;53.392;-6.248;2023-01-26T13:44:35;102950.53;;;7.57;88.85
43707;BME280;61348;53.392;-6.248;2023-01-26T13:47:26;102941.41;;;7.61;88.75
43707;BME280;61348;53.392;-6.248;2023-01-26T13:49:53;102937.84;;;7.66;88.68
43707;BME280;61348;53.392;-6.248;2023-01-26T13:52:23;102936.75;;;7.72;88.48
43707;BME280;61348;53.392;-6.248;2023-01-26T13:54:52;102934.00;;;7.72;88.40
43707;BME280;61348;53.392;-6.248;2023-01-26T13:57:26;102935.94;;;7.71;88.38
43707;BME280;61348;53.392;-6.248;2023-01-26T13:59:56;102930.97;;;7.78;88.29
43707;BME280;61348;53.392;-6.248;2023-01-26T14:02:33;102918.84;;;7.84;88.26
43707;BME280;61348;53.392;-6.248;2023-01-26T14:05:01;102929.34;;;7.87;87.98
43707;BME280;61348;53.392;-6.248;2023-01-26T14:07:40;102918.03;;;7.89;87.87
43707;BME280;61348;53.392;-6.248;2023-01-26T14:10:16;102918.84;;;7.99;87.89
43707;BME280;61348;53.392;-6.248;2023-01-26T14:12:54;102902.03;;;8.11;87.88
43707;BME280;61348;53.392;-6.248;2023-01-26T14:15:28;102912.22;;;8.21;87.64
43707;BME280;61348;53.392;-6.248;2023-01-26T14:18:00;102907.84;;;8.30;87.51
43707;BME280;61348;53.392;-6.248;2023-01-26T14:20:35;102909.53;;;8.36;87.43
43707;BME280;61348;53.392;-6.248;2023-01-26T14:25:33;102910.34;;;8.46;87.26
43707;BME280;61348;53.392;-6.248;2023-01-26T14:28:00;102909.47;;;8.56;87.03
43707;BME280;61348;53.392;-6.248;2023-01-26T14:30:29;102915.00;;;8.51;86.76
43707;BME280;61348;53.392;-6.248;2023-01-26T14:33:12;102910.03;;;8.48;86.45
43707;BME280;61348;53.392;-6.248;2023-01-26T14:35:40;102916.13;;;8.40;86.31
43707;BME280;61348;53.392;-6.248;2023-01-26T14:40:50;102924.13;;;8.51;86.21